sensor_id;sensor_type;location;lat;lon;timestamp;pressure;altitude;pressure_sealevel;temperature;humidity
77011;BME280;65945;53.148;17.956;2023-04-06T00:00:04;101844.31;;;-2.91;70.66
77011;BME280;65945;53.148;17.956;2023-04-06T00:02:55;101842.59;;;-2.92;70.56
77011;BME280;65945;53.148;17.956;2023-04-06T00:05:22;101845.28;;;-2.91;70.71
77011;BME280;65945;53.148;17.956;2023-04-06T00:07:49;101842.66;;;-2.91;70.61
77011;BME280;65945;53.148;17.956;2023-04-06T00:10:16;101842.92;;;-2.90;70.53
77011;BME280;65945;53.148;17.956;2023-04-06T00:12:43;101845.06;;;-2.91;70.72
77011;BME280;65945;53.148;17.956;2023-04-06T00:15:10;101843.24;;;-2.92;70.98
77011;BME280;65945;53.148;17.956;2023-04-06T00:17:36;101846.80;;;-2.95;71.20
77011;BME280;65945;53.148;17.956;2023-04-06T00:20:04;101844.48;;;-2.99;71.19
77011;BME280;65945;53.148;17.956;2023-04-06T00:22:30;101842.52;;;-3.02;71.36
77011;BME280;65945;53.148;17.956;2023-04-06T00:24:57;101842.36;;;-3.05;71.17
77011;BME280;65945;53.148;17.956;2023-04-06T00:27:24;101841.39;;;-3.06;71.01
77011;BME280;65945;53.148;17.956;2023-04-06T00:29:50;101842.36;;;-3.08;71.29
77011;BME280;65945;53.148;17.956;2023-04-06T00:32:17;101846.02;;;-3.11;71.37
77011;BME280;65945;53.148;17.956;2023-04-06T00:34:44;101844.73;;;-3.12;71.40
77011;BME280;65945;53.148;17.956;2023-04-06T00:37:11;101842.11;;;-3.14;71.37
77011;BME280;65945;53.148;17.956;2023-04-06T00:39:38;101839.34;;;-3.17;71.49
77011;BME280;65945;53.148;17.956;2023-04-06T00:42:11;101837.85;;;-3.19;71.50
77011;BME280;65945;53.148;17.956;2023-04-06T00:44:40;101839.21;;;-3.20;71.89
77011;BME280;65945;53.148;17.956;2023-04-06T00:47:07;101840.00;;;-3.23;71.93
77011;BME280;65945;53.148;17.956;2023-04-06T00:49:34;101842.42;;;-3.27;71.95
77011;BME280;65945;53.148;17.956;2023-04-06T00:52:01;101844.80;;;-3.29;72.13
77011;BME280;65945;53.148;17.956;2023-04-06T00:54:28;101843.48;;;-3.31;72.18
77011;BME280;65945;53.148;17.956;2023-04-06T00:56:56;101845.95;;;-3.34;72.22
77011;BME280;65945;53.148;17.956;2023-04-06T00:59:23;101844.45;;;-3.36;72.24
77011;BME280;65945;53.148;17.956;2023-04-06T01:01:50;101846.95;;;-3.36;72.16
77011;BME280;65945;53.148;17.956;2023-04-06T01:04:43;101846.07;;;-3.35;72.20
77011;BME280;65945;53.148;17.956;2023-04-06T01:07:14;101844.67;;;-3.35;72.29
77011;BME280;65945;53.148;17.956;2023-04-06T01:09:46;101844.05;;;-3.37;72.43
77011;BME280;65945;53.148;17.956;2023-04-06T01:12:18;101844.11;;;-3.39;72.43
77011;BME280;65945;53.148;17.956;2023-04-06T01:14:45;101840.60;;;-3.42;72.68
77011;BME280;65945;53.148;17.956;2023-04-06T01:17:12;101837.85;;;-3.43;72.57
77011;BME280;65945;53.148;17.956;2023-04-06T01:19:39;101840.35;;;-3.43;72.54
77011;BME280;65945;53.148;17.956;2023-04-06T01:22:07;101839.89;;;-3.44;72.49
77011;BME280;65945;53.148;17.956;2023-04-06T01:24:50;101840.33;;;-3.45;72.64
77011;BME280;65945;53.148;17.956;2023-04-06T01:27:27;101836.19;;;-3.45;72.51
77011;BME280;65945;53.148;17.956;2023-04-06T01:30:18;101835.69;;;-3.46;72.63
77011;BME280;65945;53.148;17.956;2023-04-06T01:32:54;101836.90;;;-3.46;72.60
77011;BME280;65945;53.148;17.956;2023-04-06T01:35:37;101830.78;;;-3.46;72.65
77011;BME280;65945;53.148;17.956;2023-04-06T01:38:22;101835.02;;;-3.45;72.97
77011;BME280;65945;53.148;17.956;2023-04-06T01:40:49;101832.89;;;-3.45;72.80
77011;BME280;65945;53.148;17.956;2023-04-06T01:43:17;101828.85;;;-3.43;72.92
77011;BME280;65945;53.148;17.956;2023-04-06T01:45:56;101831.52;;;-3.43;72.80
77011;BME280;65945;53.148;17.956;2023-04-06T01:48:23;101829.50;;;-3.42;72.85
77011;BME280;65945;53.148;17.956;2023-04-06T01:50:50;101834.35;;;-3.41;72.82
77011;BME280;65945;53.148;17.956;2023-04-06T01:53:21;101830.18;;;-3.40;72.68
77011;BME280;65945;53.148;17.956;2023-04-06T01:55:48;101833.70;;;-3.39;72.79
77011;BME280;65945;53.148;17.956;2023-04-06T01:58:19;101833.49;;;-3.38;72.90
77011;BME280;65945;53.148;17.956;2023-04-06T02:00:46;101834.25;;;-3.38;72.70
77011;BME280;65945;53.148;17.956;2023-04-06T02:03:13;101836.20;;;-3.34;72.92
77011;BME280;65945;53.148;17.956;2023-04-06T02:05:41;101831.78;;;-3.30;72.86
77011;BME280;65945;53.148;17.956;2023-04-06T02:08:26;101833.46;;;-3.25;73.00
77011;BME280;65945;53.148;17.956;2023-04-06T02:10:53;101832.27;;;-3.22;72.78
77011;BME280;65945;53.148;17.956;2023-04-06T02:13:28;101829.81;;;-3.19;72.79
77011;BME280;65945;53.148;17.956;2023-04-06T02:15:55;101824.63;;;-3.17;72.79
77011;BME280;65945;53.148;17.956;2023-04-06T02:18:23;101824.32;;;-3.17;72.79
77011;BME280;65945;53.148;17.956;2023-04-06T02:20:50;101823.73;;;-3.17;72.74
77011;BME280;65945;53.148;17.956;2023-04-06T02:23:16;101828.77;;;-3.17;72.60
77011;BME280;65945;53.148;17.956;2023-04-06T02:25:43;101825.67;;;-3.20;72.66
77011;BME280;65945;53.148;17.956;2023-04-06T02:28:10;101824.66;;;-3.24;72.59
77011;BME280;65945;53.148;17.956;2023-04-06T02:30:36;101826.42;;;-3.27;72.73
77011;BME280;65945;53.148;17.956;2023-04-06T02:33:04;101822.68;;;-3.30;72.60
77011;BME280;65945;53.148;17.956;2023-04-06T02:35:37;101823.80;;;-3.32;72.79
77011;BME280;65945;53.148;17.956;2023-04-06T02:38:04;101823.48;;;-3.35;72.96
77011;BME280;65945;53.148;17.956;2023-04-06T02:40:31;101827.86;;;-3.36;72.85
77011;BME280;65945;53.148;17.956;2023-04-06T02:42:59;101825.23;;;-3.39;72.71
77011;BME280;65945;53.148;17.956;2023-04-06T02:45:30;101827.01;;;-3.44;72.93
77011;BME280;65945;53.148;17.956;2023-04-06T02:47:57;101826.52;;;-3.46;73.18
77011;BME280;65945;53.148;17.956;2023-04-06T02:50:24;101833.20;;;-3.48;73.29
77011;BME280;65945;53.148;17.956;2023-04-06T02:52:56;101832.58;;;-3.50;73.22
77011;BME280;65945;53.148;17.956;2023-04-06T02:55:23;101832.58;;;-3.52;73.35
77011;BME280;65945;53.148;17.956;2023-04-06T02:57:49;101837.27;;;-3.58;73.56
77011;BME280;65945;53.148;17.956;2023-04-06T03:00:17;101838.02;;;-3.64;73.28
77011;BME280;65945;53.148;17.956;2023-04-06T03:02:44;101840.73;;;-3.69;73.42
77011;BME280;65945;53.148;17.956;2023-04-06T03:05:13;101841.17;;;-3.72;73.67
77011;BME280;65945;53.148;17.956;2023-04-06T03:07:42;101841.20;;;-3.73;73.66
77011;BME280;65945;53.148;17.956;2023-04-06T03:10:13;101845.42;;;-3.73;73.65
77011;BME280;65945;53.148;17.956;2023-04-06T03:12:39;101847.10;;;-3.71;73.83
77011;BME280;65945;53.148;17.956;2023-04-06T03:15:17;101850.04;;;-3.66;73.91
77011;BME280;65945;53.148;17.956;2023-04-06T03:17:47;101849.27;;;-3.61;73.80
77011;BME280;65945;53.148;17.956;2023-04-06T03:20:27;101852.95;;;-3.55;74.03
77011;BME280;65945;53.148;17.956;2023-04-06T03:22:54;101849.56;;;-3.50;73.92
77011;BME280;65945;53.148;17.956;2023-04-06T03:25:23;101853.20;;;-3.44;73.89
77011;BME280;65945;53.148;17.956;2023-04-06T03:27:49;101848.20;;;-3.41;73.96
77011;BME280;65945;53.148;17.956;2023-04-06T03:30:18;101847.23;;;-3.40;73.83
77011;BME280;65945;53.148;17.956;2023-04-06T03:32:44;101849.48;;;-3.37;73.97
77011;BME280;65945;53.148;17.956;2023-04-06T03:35:11;101845.55;;;-3.32;73.93
77011;BME280;65945;53.148;17.956;2023-04-06T03:37:38;101848.77;;;-3.28;73.77
77011;BME280;65945;53.148;17.956;2023-04-06T03:40:05;101844.00;;;-3.25;73.98
77011;BME280;65945;53.148;17.956;2023-04-06T03:42:32;101848.35;;;-3.21;73.70
77011;BME280;65945;53.148;17.956;2023-04-06T03:45:04;101850.90;;;-3.19;73.73
77011;BME280;65945;53.148;17.956;2023-04-06T03:47:31;101849.98;;;-3.18;73.78
77011;BME280;65945;53.148;17.956;2023-04-06T03:50:01;101851.14;;;-3.15;73.80
77011;BME280;65945;53.148;17.956;2023-04-06T03:52:30;101855.55;;;-3.15;73.79
77011;BME280;65945;53.148;17.956;2023-04-06T03:54:57;101853.86;;;-3.14;73.80
77011;BME280;65945;53.148;17.956;2023-04-06T03:57:23;101853.02;;;-3.13;73.84
77011;BME280;65945;53.148;17.956;2023-04-06T03:59:50;101854.79;;;-3.12;73.77
77011;BME280;65945;53.148;17.956;2023-04-06T04:02:16;101858.41;;;-3.12;73.82
77011;BME280;65945;53.148;17.956;2023-04-06T04:04:43;101857.67;;;-3.11;73.69
77011;BME280;65945;53.148;17.956;2023-04-06T04:07:10;101856.61;;;-3.12;73.77
77011;BME280;65945;53.148;17.956;2023-04-06T04:09:36;101854.67;;;-3.14;73.75
77011;BME280;65945;53.148;17.956;2023-04-06T04:12:03;101860.89;;;-3.18;73.74
77011;BME280;65945;53.148;17.956;2023-04-06T04:14:31;101859.39;;;-3.19;73.88
77011;BME280;65945;53.148;17.956;2023-04-06T04:16:57;101862.98;;;-3.20;73.88
77011;BME280;65945;53.148;17.956;2023-04-06T04:19:24;101863.70;;;-3.23;73.73
77011;BME280;65945;53.148;17.956;2023-04-06T04:21:50;101861.21;;;-3.29;73.88
77011;BME280;65945;53.148;17.956;2023-04-06T04:24:20;101863.48;;;-3.33;73.92
77011;BME280;65945;53.148;17.956;2023-04-06T04:26:47;101866.64;;;-3.37;73.76
77011;BME280;65945;53.148;17.956;2023-04-06T04:29:14;101866.84;;;-3.40;73.99
77011;BME280;65945;53.148;17.956;2023-04-06T04:31:41;101867.48;;;-3.42;74.46
77011;BME280;65945;53.148;17.956;2023-04-06T04:34:14;101867.88;;;-3.43;74.47
77011;BME280;65945;53.148;17.956;2023-04-06T04:36:41;101866.85;;;-3.42;74.49
77011;BME280;65945;53.148;17.956;2023-04-06T04:39:14;101867.54;;;-3.40;74.53
77011;BME280;65945;53.148;17.956;2023-04-06T04:41:42;101867.21;;;-3.38;74.48
77011;BME280;65945;53.148;17.956;2023-04-06T04:44:10;101866.28;;;-3.32;74.54
77011;BME280;65945;53.148;17.956;2023-04-06T04:46:37;101867.86;;;-3.26;74.54
77011;BME280;65945;53.148;17.956;2023-04-06T04:49:04;101868.61;;;-3.21;74.44
77011;BME280;65945;53.148;17.956;2023-04-06T04:51:31;101872.19;;;-3.16;74.41
77011;BME280;65945;53.148;17.956;2023-04-06T04:54:23;101874.64;;;-3.08;74.47
77011;BME280;65945;53.148;17.956;2023-04-06T04:56:50;101876.73;;;-3.01;74.46
77011;BME280;65945;53.148;17.956;2023-04-06T04:59:25;101878.08;;;-2.94;74.37
77011;BME280;65945;53.148;17.956;2023-04-06T05:01:56;101880.33;;;-2.86;74.33
77011;BME280;65945;53.148;17.956;2023-04-06T05:04:29;101882.55;;;-2.80;74.16
77011;BME280;65945;53.148;17.956;2023-04-06T05:07:03;101883.11;;;-2.73;74.26
77011;BME280;65945;53.148;17.956;2023-04-06T05:09:30;101878.06;;;-2.66;74.10
77011;BME280;65945;53.148;17.956;2023-04-06T05:11:58;101879.14;;;-2.57;74.22
77011;BME280;65945;53.148;17.956;2023-04-06T05:14:27;101883.64;;;-2.49;74.17
77011;BME280;65945;53.148;17.956;2023-04-06T05:16:55;101884.11;;;-2.41;73.96
77011;BME280;65945;53.148;17.956;2023-04-06T05:19:24;101884.63;;;-2.33;73.99
77011;BME280;65945;53.148;17.956;2023-04-06T05:21:51;101885.48;;;-2.26;73.99
77011;BME280;65945;53.148;17.956;2023-04-06T05:24:18;101885.91;;;-2.18;73.79
77011;BME280;65945;53.148;17.956;2023-04-06T05:26:45;101888.70;;;-2.15;73.67
77011;BME280;65945;53.148;17.956;2023-04-06T05:29:18;101890.77;;;-2.08;73.71
77011;BME280;65945;53.148;17.956;2023-04-06T05:31:46;101891.74;;;-2.01;73.57
77011;BME280;65945;53.148;17.956;2023-04-06T05:34:13;101892.94;;;-1.92;73.49
77011;BME280;65945;53.148;17.956;2023-04-06T05:36:40;101893.89;;;-1.81;73.51
77011;BME280;65945;53.148;17.956;2023-04-06T05:39:15;101898.17;;;-1.73;73.56
77011;BME280;65945;53.148;17.956;2023-04-06T05:41:45;101897.25;;;-1.73;73.56
77011;BME280;65945;53.148;17.956;2023-04-06T05:44:12;101891.96;;;-1.68;73.44
77011;BME280;65945;53.148;17.956;2023-04-06T05:46:40;101891.55;;;-1.61;73.47
77011;BME280;65945;53.148;17.956;2023-04-06T05:49:07;101892.08;;;-1.54;73.41
77011;BME280;65945;53.148;17.956;2023-04-06T05:51:34;101894.55;;;-1.50;73.45
77011;BME280;65945;53.148;17.956;2023-04-06T05:54:01;101897.10;;;-1.44;73.37
77011;BME280;65945;53.148;17.956;2023-04-06T05:56:28;101899.10;;;-1.37;73.30
77011;BME280;65945;53.148;17.956;2023-04-06T05:58:56;101896.13;;;-1.32;73.18
77011;BME280;65945;53.148;17.956;2023-04-06T06:01:27;101901.61;;;-1.23;73.09
77011;BME280;65945;53.148;17.956;2023-04-06T06:03:54;101897.85;;;-1.15;73.09
77011;BME280;65945;53.148;17.956;2023-04-06T06:06:22;101895.35;;;-1.08;72.97
77011;BME280;65945;53.148;17.956;2023-04-06T06:09:05;101888.16;;;-0.96;73.07
77011;BME280;65945;53.148;17.956;2023-04-06T06:11:35;101893.73;;;-0.87;73.02
77011;BME280;65945;53.148;17.956;2023-04-06T06:14:02;101897.09;;;-0.79;72.55
77011;BME280;65945;53.148;17.956;2023-04-06T06:16:32;101890.59;;;-0.74;72.63
77011;BME280;65945;53.148;17.956;2023-04-06T06:18:59;101890.17;;;-0.71;72.47
77011;BME280;65945;53.148;17.956;2023-04-06T06:21:26;101892.00;;;-0.61;72.39
77011;BME280;65945;53.148;17.956;2023-04-06T06:23:53;101892.43;;;-0.51;72.37
77011;BME280;65945;53.148;17.956;2023-04-06T06:26:21;101889.04;;;-0.40;72.43
77011;BME280;65945;53.148;17.956;2023-04-06T06:28:49;101888.58;;;-0.29;71.92
77011;BME280;65945;53.148;17.956;2023-04-06T06:31:15;101890.64;;;-0.17;71.71
77011;BME280;65945;53.148;17.956;2023-04-06T06:33:43;101889.17;;;-0.05;71.72
77011;BME280;65945;53.148;17.956;2023-04-06T06:36:10;101891.55;;;0.08;71.40
77011;BME280;65945;53.148;17.956;2023-04-06T06:38:37;101893.88;;;0.16;71.03
77011;BME280;65945;53.148;17.956;2023-04-06T06:41:04;101892.20;;;0.23;70.86
77011;BME280;65945;53.148;17.956;2023-04-06T06:43:31;101893.27;;;0.32;70.69
77011;BME280;65945;53.148;17.956;2023-04-06T06:46:02;101895.71;;;0.35;70.69
77011;BME280;65945;53.148;17.956;2023-04-06T06:48:29;101895.13;;;0.40;70.55
77011;BME280;65945;53.148;17.956;2023-04-06T06:50:56;101889.65;;;0.47;70.46
77011;BME280;65945;53.148;17.956;2023-04-06T06:53:23;101888.41;;;0.60;70.30
77011;BME280;65945;53.148;17.956;2023-04-06T06:55:50;101888.15;;;0.75;70.52
77011;BME280;65945;53.148;17.956;2023-04-06T06:58:18;101892.42;;;0.88;70.29
77011;BME280;65945;53.148;17.956;2023-04-06T07:00:46;101892.77;;;1.01;69.91
77011;BME280;65945;53.148;17.956;2023-04-06T07:03:13;101892.98;;;1.17;70.07
77011;BME280;65945;53.148;17.956;2023-04-06T07:05:46;101897.42;;;1.29;69.59
77011;BME280;65945;53.148;17.956;2023-04-06T07:08:20;101897.50;;;1.33;68.95
77011;BME280;65945;53.148;17.956;2023-04-06T07:10:48;101893.94;;;1.42;69.25
77011;BME280;65945;53.148;17.956;2023-04-06T07:13:15;101891.46;;;1.61;68.91
77011;BME280;65945;53.148;17.956;2023-04-06T07:15:49;101889.91;;;1.81;68.34
77011;BME280;65945;53.148;17.956;2023-04-06T07:18:16;101883.29;;;1.98;68.59
77011;BME280;65945;53.148;17.956;2023-04-06T07:20:44;101884.72;;;2.14;68.62
77011;BME280;65945;53.148;17.956;2023-04-06T07:23:10;101886.05;;;2.31;68.41
77011;BME280;65945;53.148;17.956;2023-04-06T07:25:37;101885.23;;;2.49;68.06
77011;BME280;65945;53.148;17.956;2023-04-06T07:28:04;101885.95;;;2.67;67.52
77011;BME280;65945;53.148;17.956;2023-04-06T07:30:31;101890.92;;;2.83;67.45
77011;BME280;65945;53.148;17.956;2023-04-06T07:32:58;101891.48;;;2.99;66.34
77011;BME280;65945;53.148;17.956;2023-04-06T07:35:26;101890.80;;;3.14;65.96
77011;BME280;65945;53.148;17.956;2023-04-06T07:37:53;101890.86;;;3.25;65.47
77011;BME280;65945;53.148;17.956;2023-04-06T07:40:21;101890.12;;;3.34;64.24
77011;BME280;65945;53.148;17.956;2023-04-06T07:42:48;101888.39;;;3.42;63.71
77011;BME280;65945;53.148;17.956;2023-04-06T07:45:15;101886.36;;;3.46;59.71
77011;BME280;65945;53.148;17.956;2023-04-06T07:47:42;101886.63;;;3.44;60.03
77011;BME280;65945;53.148;17.956;2023-04-06T07:50:09;101884.73;;;3.48;60.61
77011;BME280;65945;53.148;17.956;2023-04-06T07:52:38;101889.12;;;3.54;59.77
77011;BME280;65945;53.148;17.956;2023-04-06T07:55:05;101884.70;;;3.60;59.59
77011;BME280;65945;53.148;17.956;2023-04-06T07:57:32;101888.48;;;3.65;58.72
77011;BME280;65945;53.148;17.956;2023-04-06T07:59:58;101885.80;;;3.72;58.99
77011;BME280;65945;53.148;17.956;2023-04-06T08:02:25;101881.58;;;3.76;57.71
77011;BME280;65945;53.148;17.956;2023-04-06T08:04:51;101882.55;;;3.84;57.99
77011;BME280;65945;53.148;17.956;2023-04-06T08:07:18;101882.45;;;3.89;56.79
77011;BME280;65945;53.148;17.956;2023-04-06T08:09:44;101874.98;;;3.97;56.75
77011;BME280;65945;53.148;17.956;2023-04-06T08:12:11;101872.13;;;4.10;56.17
77011;BME280;65945;53.148;17.956;2023-04-06T08:14:38;101870.55;;;4.16;53.83
77011;BME280;65945;53.148;17.956;2023-04-06T08:17:04;101872.23;;;4.25;54.30
77011;BME280;65945;53.148;17.956;2023-04-06T08:19:31;101873.73;;;4.33;53.07
77011;BME280;65945;53.148;17.956;2023-04-06T08:21:57;101871.43;;;4.36;52.00
77011;BME280;65945;53.148;17.956;2023-04-06T08:24:24;101875.52;;;4.34;50.43
77011;BME280;65945;53.148;17.956;2023-04-06T08:26:51;101872.02;;;4.28;50.06
77011;BME280;65945;53.148;17.956;2023-04-06T08:29:18;101876.02;;;4.26;50.03
77011;BME280;65945;53.148;17.956;2023-04-06T08:31:45;101870.29;;;4.28;51.13
77011;BME280;65945;53.148;17.956;2023-04-06T08:34:11;101872.34;;;4.35;50.00
77011;BME280;65945;53.148;17.956;2023-04-06T08:36:38;101870.23;;;4.39;48.59
77011;BME280;65945;53.148;17.956;2023-04-06T08:39:04;101869.95;;;4.41;49.88
77011;BME280;65945;53.148;17.956;2023-04-06T08:41:31;101870.52;;;4.49;49.14
77011;BME280;65945;53.148;17.956;2023-04-06T08:44:00;101869.64;;;4.58;49.49
77011;BME280;65945;53.148;17.956;2023-04-06T08:46:29;101867.38;;;4.67;50.43
77011;BME280;65945;53.148;17.956;2023-04-06T08:48:58;101869.55;;;4.81;51.07
77011;BME280;65945;53.148;17.956;2023-04-06T08:51:25;101867.61;;;4.93;49.32
77011;BME280;65945;53.148;17.956;2023-04-06T08:53:58;101873.52;;;5.06;49.88
77011;BME280;65945;53.148;17.956;2023-04-06T08:56:26;101866.71;;;5.16;48.54
77011;BME280;65945;53.148;17.956;2023-04-06T08:58:55;101861.38;;;5.31;49.90
77011;BME280;65945;53.148;17.956;2023-04-06T09:01:26;101867.79;;;5.55;50.47
77011;BME280;65945;53.148;17.956;2023-04-06T09:03:58;101868.08;;;5.84;49.20
77011;BME280;65945;53.148;17.956;2023-04-06T09:06:25;101863.19;;;6.09;48.82
77011;BME280;65945;53.148;17.956;2023-04-06T09:08:55;101860.25;;;6.31;46.47
77011;BME280;65945;53.148;17.956;2023-04-06T09:11:21;101857.94;;;6.42;46.10
77011;BME280;65945;53.148;17.956;2023-04-06T09:13:50;101859.20;;;6.54;47.80
77011;BME280;65945;53.148;17.956;2023-04-06T09:16:18;101842.63;;;6.68;47.52
77011;BME280;65945;53.148;17.956;2023-04-06T09:18:45;101847.13;;;6.78;47.47
77011;BME280;65945;53.148;17.956;2023-04-06T09:21:12;101854.38;;;6.77;46.53
77011;BME280;65945;53.148;17.956;2023-04-06T09:23:39;101852.63;;;6.71;45.54
77011;BME280;65945;53.148;17.956;2023-04-06T09:26:15;101849.81;;;6.62;45.43
77011;BME280;65945;53.148;17.956;2023-04-06T09:28:52;101849.41;;;6.55;45.38
77011;BME280;65945;53.148;17.956;2023-04-06T09:31:24;101846.09;;;6.56;45.22
77011;BME280;65945;53.148;17.956;2023-04-06T09:33:51;101841.98;;;6.60;44.90
77011;BME280;65945;53.148;17.956;2023-04-06T09:36:18;101840.91;;;6.72;42.77
77011;BME280;65945;53.148;17.956;2023-04-06T09:41:22;101840.67;;;6.64;42.69
77011;BME280;65945;53.148;17.956;2023-04-06T09:44:05;101834.50;;;6.71;45.29
77011;BME280;65945;53.148;17.956;2023-04-06T09:46:37;101831.74;;;6.81;43.17
77011;BME280;65945;53.148;17.956;2023-04-06T09:49:06;101835.84;;;6.73;41.23
77011;BME280;65945;53.148;17.956;2023-04-06T09:51:38;101835.34;;;6.51;41.09
77011;BME280;65945;53.148;17.956;2023-04-06T09:54:06;101837.57;;;6.31;42.22
77011;BME280;65945;53.148;17.956;2023-04-06T09:56:56;101838.91;;;6.27;42.47
77011;BME280;65945;53.148;17.956;2023-04-06T10:02:32;101838.94;;;6.46;41.82
77011;BME280;65945;53.148;17.956;2023-04-06T10:05:06;101835.77;;;6.45;41.69
77011;BME280;65945;53.148;17.956;2023-04-06T10:07:35;101834.33;;;6.40;41.72
77011;BME280;65945;53.148;17.956;2023-04-06T10:10:03;101835.96;;;6.52;42.67
77011;BME280;65945;53.148;17.956;2023-04-06T10:12:30;101833.75;;;6.61;42.13
77011;BME280;65945;53.148;17.956;2023-04-06T10:14:56;101832.16;;;6.78;43.05
77011;BME280;65945;53.148;17.956;2023-04-06T10:17:23;101835.70;;;6.88;42.53
77011;BME280;65945;53.148;17.956;2023-04-06T10:19:59;101830.55;;;6.91;42.13
77011;BME280;65945;53.148;17.956;2023-04-06T10:22:59;101827.23;;;6.88;42.97
77011;BME280;65945;53.148;17.956;2023-04-06T10:25:32;101829.33;;;6.98;41.99
77011;BME280;65945;53.148;17.956;2023-04-06T10:28:07;101819.05;;;7.01;43.08
77011;BME280;65945;53.148;17.956;2023-04-06T10:30:35;101818.28;;;7.02;42.05
77011;BME280;65945;53.148;17.956;2023-04-06T10:33:12;101818.19;;;7.04;42.14
77011;BME280;65945;53.148;17.956;2023-04-06T10:35:39;101812.02;;;7.07;42.66
77011;BME280;65945;53.148;17.956;2023-04-06T10:38:06;101816.00;;;6.97;41.19
77011;BME280;65945;53.148;17.956;2023-04-06T10:40:38;101811.85;;;6.82;41.83
77011;BME280;65945;53.148;17.956;2023-04-06T10:43:10;101811.77;;;6.72;41.84
77011;BME280;65945;53.148;17.956;2023-04-06T10:45:39;101810.41;;;6.60;41.57
77011;BME280;65945;53.148;17.956;2023-04-06T10:48:18;101806.02;;;6.53;41.29
77011;BME280;65945;53.148;17.956;2023-04-06T10:50:48;101806.58;;;6.46;42.09
77011;BME280;65945;53.148;17.956;2023-04-06T10:53:25;101801.54;;;6.45;41.56
77011;BME280;65945;53.148;17.956;2023-04-06T10:55:56;101798.69;;;6.50;41.74
77011;BME280;65945;53.148;17.956;2023-04-06T10:58:27;101792.96;;;6.57;41.18
77011;BME280;65945;53.148;17.956;2023-04-06T11:00:54;101790.27;;;6.64;41.61
77011;BME280;65945;53.148;17.956;2023-04-06T11:03:21;101787.39;;;6.68;40.81
77011;BME280;65945;53.148;17.956;2023-04-06T11:05:49;101784.17;;;6.77;41.94
77011;BME280;65945;53.148;17.956;2023-04-06T11:08:32;101781.36;;;6.87;42.31
77011;BME280;65945;53.148;17.956;2023-04-06T11:11:09;101774.71;;;7.09;43.54
77011;BME280;65945;53.148;17.956;2023-04-06T11:16:18;101769.85;;;7.52;40.81
77011;BME280;65945;53.148;17.956;2023-04-06T11:18:56;101767.84;;;7.54;40.05
77011;BME280;65945;53.148;17.956;2023-04-06T11:21:40;101772.23;;;7.50;39.64
77011;BME280;65945;53.148;17.956;2023-04-06T11:24:21;101771.23;;;7.34;39.05
77011;BME280;65945;53.148;17.956;2023-04-06T11:26:54;101761.92;;;7.22;40.66
77011;BME280;65945;53.148;17.956;2023-04-06T11:29:25;101764.08;;;7.25;40.46
77011;BME280;65945;53.148;17.956;2023-04-06T11:34:25;101755.20;;;7.52;40.64
77011;BME280;65945;53.148;17.956;2023-04-06T11:36:57;101750.94;;;7.50;39.91
77011;BME280;65945;53.148;17.956;2023-04-06T11:39:25;101764.74;;;7.34;39.34
77011;BME280;65945;53.148;17.956;2023-04-06T11:42:00;101760.09;;;7.25;40.37
77011;BME280;65945;53.148;17.956;2023-04-06T11:44:43;101757.46;;;7.24;40.47
77011;BME280;65945;53.148;17.956;2023-04-06T11:47:12;101757.30;;;7.28;40.23
77011;BME280;65945;53.148;17.956;2023-04-06T11:49:40;101755.54;;;7.27;40.31
77011;BME280;65945;53.148;17.956;2023-04-06T11:52:18;101746.04;;;7.25;40.60
77011;BME280;65945;53.148;17.956;2023-04-06T11:54:47;101741.09;;;7.32;41.28
77011;BME280;65945;53.148;17.956;2023-04-06T11:57:15;101736.94;;;7.48;41.61
77011;BME280;65945;53.148;17.956;2023-04-06T11:59:42;101734.95;;;7.53;40.74
77011;BME280;65945;53.148;17.956;2023-04-06T12:02:09;101732.67;;;7.46;40.06
77011;BME280;65945;53.148;17.956;2023-04-06T12:04:36;101729.13;;;7.40;40.61
77011;BME280;65945;53.148;17.956;2023-04-06T12:07:03;101727.36;;;7.40;40.79
77011;BME280;65945;53.148;17.956;2023-04-06T12:09:31;101721.47;;;7.40;40.78
77011;BME280;65945;53.148;17.956;2023-04-06T12:11:58;101716.75;;;7.46;41.18
77011;BME280;65945;53.148;17.956;2023-04-06T12:14:24;101709.48;;;7.60;41.38
77011;BME280;65945;53.148;17.956;2023-04-06T12:16:51;101710.91;;;7.71;40.52
77011;BME280;65945;53.148;17.956;2023-04-06T12:19:18;101707.30;;;7.76;40.70
77011;BME280;65945;53.148;17.956;2023-04-06T12:21:44;101715.10;;;7.76;40.67
77011;BME280;65945;53.148;17.956;2023-04-06T12:24:11;101708.96;;;7.76;40.49
77011;BME280;65945;53.148;17.956;2023-04-06T12:26:37;101704.33;;;7.70;40.82
77011;BME280;65945;53.148;17.956;2023-04-06T12:29:04;101704.70;;;7.67;41.03
77011;BME280;65945;53.148;17.956;2023-04-06T12:31:35;101703.94;;;7.73;40.83
77011;BME280;65945;53.148;17.956;2023-04-06T12:34:02;101694.23;;;7.82;40.60
77011;BME280;65945;53.148;17.956;2023-04-06T12:36:29;101688.86;;;7.84;40.40
77011;BME280;65945;53.148;17.956;2023-04-06T12:38:57;101682.60;;;7.87;40.14
77011;BME280;65945;53.148;17.956;2023-04-06T12:41:24;101677.14;;;7.92;40.44
77011;BME280;65945;53.148;17.956;2023-04-06T12:43:51;101677.64;;;7.99;40.02
77011;BME280;65945;53.148;17.956;2023-04-06T12:46:18;101681.80;;;8.01;40.03
77011;BME280;65945;53.148;17.956;2023-04-06T12:48:45;101678.42;;;8.10;40.89
77011;BME280;65945;53.148;17.956;2023-04-06T12:51:12;101675.85;;;8.21;39.88
77011;BME280;65945;53.148;17.956;2023-04-06T12:53:39;101673.88;;;8.23;40.16
77011;BME280;65945;53.148;17.956;2023-04-06T12:56:13;101668.42;;;8.30;40.55
77011;BME280;65945;53.148;17.956;2023-04-06T12:58:40;101669.25;;;8.44;40.11
77011;BME280;65945;53.148;17.956;2023-04-06T13:01:08;101669.07;;;8.50;38.88
77011;BME280;65945;53.148;17.956;2023-04-06T13:03:34;101666.28;;;8.49;38.65
77011;BME280;65945;53.148;17.956;2023-04-06T13:06:02;101663.49;;;8.42;38.57